sensor_id;sensor_type;location;lat;lon;timestamp;P1;durP1;ratioP1;P2;durP2;ratioP2
57561;SDS011;43397;51.530;5.974;2022-08-19T00:00:56;30.58;;;25.73;;
57561;SDS011;43397;51.530;5.974;2022-08-19T00:03:22;32.47;;;27.08;;
57561;SDS011;43397;51.530;5.974;2022-08-19T00:05:48;30.55;;;27.05;;
57561;SDS011;43397;51.530;5.974;2022-08-19T00:08:13;32.47;;;26.85;;
57561;SDS011;43397;51.530;5.974;2022-08-19T00:10:41;34.25;;;28.67;;
57561;SDS011;43397;51.530;5.974;2022-08-19T00:13:06;31.92;;;27.48;;
57561;SDS011;43397;51.530;5.974;2022-08-19T00:15:32;34.40;;;28.10;;
57561;SDS011;43397;51.530;5.974;2022-08-19T00:17:58;35.00;;;29.35;;
57561;SDS011;43397;51.530;5.974;2022-08-19T00:20:24;36.17;;;28.88;;
57561;SDS011;43397;51.530;5.974;2022-08-19T00:22:50;34.25;;;29.08;;
57561;SDS011;43397;51.530;5.974;2022-08-19T00:25:16;34.28;;;28.88;;
57561;SDS011;43397;51.530;5.974;2022-08-19T00:27:43;30.38;;;26.92;;
57561;SDS011;43397;51.530;5.974;2022-08-19T00:30:09;33.30;;;27.98;;
57561;SDS011;43397;51.530;5.974;2022-08-19T00:32:36;36.10;;;29.98;;
57561;SDS011;43397;51.530;5.974;2022-08-19T00:35:02;31.98;;;28.08;;
57561;SDS011;43397;51.530;5.974;2022-08-19T00:37:28;34.78;;;29.80;;
57561;SDS011;43397;51.530;5.974;2022-08-19T00:39:56;33.80;;;29.88;;
57561;SDS011;43397;51.530;5.974;2022-08-19T00:42:21;36.50;;;30.60;;
57561;SDS011;43397;51.530;5.974;2022-08-19T00:44:49;37.05;;;30.58;;
57561;SDS011;43397;51.530;5.974;2022-08-19T00:47:15;33.38;;;29.60;;
57561;SDS011;43397;51.530;5.974;2022-08-19T00:49:41;34.15;;;29.25;;
57561;SDS011;43397;51.530;5.974;2022-08-19T00:52:11;35.15;;;28.52;;
57561;SDS011;43397;51.530;5.974;2022-08-19T00:54:41;35.50;;;28.65;;
57561;SDS011;43397;51.530;5.974;2022-08-19T00:57:08;34.50;;;29.08;;
57561;SDS011;43397;51.530;5.974;2022-08-19T00:59:36;38.35;;;30.65;;
57561;SDS011;43397;51.530;5.974;2022-08-19T01:07:00;34.13;;;27.65;;
57561;SDS011;43397;51.530;5.974;2022-08-19T01:09:27;33.90;;;29.08;;
57561;SDS011;43397;51.530;5.974;2022-08-19T01:11:53;35.55;;;29.77;;
57561;SDS011;43397;51.530;5.974;2022-08-19T01:14:20;35.83;;;30.85;;
57561;SDS011;43397;51.530;5.974;2022-08-19T01:16:46;36.92;;;31.60;;
57561;SDS011;43397;51.530;5.974;2022-08-19T01:19:15;37.70;;;30.77;;
57561;SDS011;43397;51.530;5.974;2022-08-19T01:21:48;37.13;;;30.65;;
57561;SDS011;43397;51.530;5.974;2022-08-19T01:24:19;37.70;;;31.30;;
57561;SDS011;43397;51.530;5.974;2022-08-19T01:26:46;38.63;;;31.27;;
57561;SDS011;43397;51.530;5.974;2022-08-19T01:29:12;39.05;;;30.52;;
57561;SDS011;43397;51.530;5.974;2022-08-19T01:31:38;39.42;;;31.50;;
57561;SDS011;43397;51.530;5.974;2022-08-19T01:34:04;39.25;;;32.35;;
57561;SDS011;43397;51.530;5.974;2022-08-19T01:36:32;39.83;;;32.40;;
57561;SDS011;43397;51.530;5.974;2022-08-19T01:39:01;37.83;;;32.03;;
57561;SDS011;43397;51.530;5.974;2022-08-19T01:41:29;40.33;;;33.47;;
57561;SDS011;43397;51.530;5.974;2022-08-19T01:43:55;42.83;;;33.42;;
57561;SDS011;43397;51.530;5.974;2022-08-19T01:46:21;40.53;;;32.58;;
57561;SDS011;43397;51.530;5.974;2022-08-19T01:48:47;37.67;;;32.17;;
57561;SDS011;43397;51.530;5.974;2022-08-19T01:51:13;39.97;;;33.58;;
57561;SDS011;43397;51.530;5.974;2022-08-19T01:53:39;41.30;;;33.40;;
57561;SDS011;43397;51.530;5.974;2022-08-19T01:56:07;35.08;;;30.23;;
57561;SDS011;43397;51.530;5.974;2022-08-19T01:58:35;40.55;;;33.30;;
57561;SDS011;43397;51.530;5.974;2022-08-19T02:01:07;42.88;;;33.30;;
57561;SDS011;43397;51.530;5.974;2022-08-19T02:03:33;40.72;;;34.22;;
57561;SDS011;43397;51.530;5.974;2022-08-19T02:05:59;43.30;;;33.85;;
57561;SDS011;43397;51.530;5.974;2022-08-19T02:08:27;40.33;;;33.40;;
57561;SDS011;43397;51.530;5.974;2022-08-19T02:10:54;41.60;;;33.53;;
57561;SDS011;43397;51.530;5.974;2022-08-19T02:13:20;40.55;;;33.78;;
57561;SDS011;43397;51.530;5.974;2022-08-19T02:15:47;40.55;;;33.42;;
57561;SDS011;43397;51.530;5.974;2022-08-19T02:18:13;38.58;;;32.63;;
57561;SDS011;43397;51.530;5.974;2022-08-19T02:20:40;41.13;;;34.30;;
57561;SDS011;43397;51.530;5.974;2022-08-19T02:23:08;41.80;;;33.10;;
57561;SDS011;43397;51.530;5.974;2022-08-19T02:25:35;41.95;;;34.22;;
57561;SDS011;43397;51.530;5.974;2022-08-19T02:28:01;36.88;;;32.35;;
57561;SDS011;43397;51.530;5.974;2022-08-19T02:30:27;41.42;;;32.97;;
57561;SDS011;43397;51.530;5.974;2022-08-19T02:32:55;40.80;;;32.35;;
57561;SDS011;43397;51.530;5.974;2022-08-19T02:35:21;42.40;;;33.65;;
57561;SDS011;43397;51.530;5.974;2022-08-19T02:37:46;43.67;;;34.42;;
57561;SDS011;43397;51.530;5.974;2022-08-19T02:40:12;40.58;;;33.45;;
57561;SDS011;43397;51.530;5.974;2022-08-19T02:42:38;42.17;;;34.80;;
57561;SDS011;43397;51.530;5.974;2022-08-19T02:45:04;42.83;;;35.78;;
57561;SDS011;43397;51.530;5.974;2022-08-19T02:47:31;40.60;;;33.85;;
57561;SDS011;43397;51.530;5.974;2022-08-19T02:50:00;42.45;;;34.75;;
57561;SDS011;43397;51.530;5.974;2022-08-19T02:52:26;44.97;;;35.65;;
57561;SDS011;43397;51.530;5.974;2022-08-19T02:54:52;45.47;;;36.10;;
57561;SDS011;43397;51.530;5.974;2022-08-19T02:57:18;43.45;;;33.25;;
57561;SDS011;43397;51.530;5.974;2022-08-19T02:59:43;42.75;;;33.45;;
57561;SDS011;43397;51.530;5.974;2022-08-19T03:02:09;42.55;;;34.15;;
57561;SDS011;43397;51.530;5.974;2022-08-19T03:04:35;42.65;;;34.17;;
57561;SDS011;43397;51.530;5.974;2022-08-19T03:07:02;42.63;;;32.60;;
57561;SDS011;43397;51.530;5.974;2022-08-19T03:09:28;41.92;;;33.75;;
57561;SDS011;43397;51.530;5.974;2022-08-19T03:11:54;43.95;;;34.40;;
57561;SDS011;43397;51.530;5.974;2022-08-19T03:14:20;44.15;;;35.47;;
57561;SDS011;43397;51.530;5.974;2022-08-19T03:16:47;42.55;;;34.65;;
57561;SDS011;43397;51.530;5.974;2022-08-19T03:19:15;46.08;;;35.17;;
57561;SDS011;43397;51.530;5.974;2022-08-19T03:21:42;44.85;;;34.83;;
57561;SDS011;43397;51.530;5.974;2022-08-19T03:24:10;46.88;;;36.33;;
57561;SDS011;43397;51.530;5.974;2022-08-19T03:26:38;46.03;;;35.88;;
57561;SDS011;43397;51.530;5.974;2022-08-19T03:29:05;47.72;;;35.00;;
57561;SDS011;43397;51.530;5.974;2022-08-19T03:31:31;45.97;;;34.92;;
57561;SDS011;43397;51.530;5.974;2022-08-19T03:33:57;44.42;;;35.13;;
57561;SDS011;43397;51.530;5.974;2022-08-19T03:36:24;45.00;;;33.83;;
57561;SDS011;43397;51.530;5.974;2022-08-19T03:38:52;38.97;;;28.48;;
57561;SDS011;43397;51.530;5.974;2022-08-19T03:41:22;36.17;;;25.40;;
57561;SDS011;43397;51.530;5.974;2022-08-19T03:43:50;40.10;;;31.52;;
57561;SDS011;43397;51.530;5.974;2022-08-19T03:46:18;40.45;;;31.63;;
57561;SDS011;43397;51.530;5.974;2022-08-19T03:48:46;41.60;;;32.80;;
57561;SDS011;43397;51.530;5.974;2022-08-19T03:51:15;47.13;;;33.03;;
57561;SDS011;43397;51.530;5.974;2022-08-19T03:53:42;42.40;;;30.95;;
57561;SDS011;43397;51.530;5.974;2022-08-19T03:56:08;43.05;;;32.70;;
57561;SDS011;43397;51.530;5.974;2022-08-19T03:58:36;42.75;;;31.60;;
57561;SDS011;43397;51.530;5.974;2022-08-19T04:01:02;44.42;;;31.55;;
57561;SDS011;43397;51.530;5.974;2022-08-19T04:03:33;41.70;;;31.45;;
57561;SDS011;43397;51.530;5.974;2022-08-19T04:05:58;43.83;;;32.03;;
57561;SDS011;43397;51.530;5.974;2022-08-19T04:08:24;43.72;;;31.30;;
57561;SDS011;43397;51.530;5.974;2022-08-19T04:10:50;43.97;;;31.60;;
57561;SDS011;43397;51.530;5.974;2022-08-19T04:13:16;42.83;;;32.10;;
57561;SDS011;43397;51.530;5.974;2022-08-19T04:15:45;46.25;;;31.38;;
57561;SDS011;43397;51.530;5.974;2022-08-19T04:18:11;46.50;;;33.42;;
57561;SDS011;43397;51.530;5.974;2022-08-19T04:20:38;48.22;;;32.22;;
57561;SDS011;43397;51.530;5.974;2022-08-19T04:23:05;48.65;;;32.15;;
57561;SDS011;43397;51.530;5.974;2022-08-19T04:25:34;47.22;;;31.98;;
57561;SDS011;43397;51.530;5.974;2022-08-19T04:28:01;44.65;;;31.13;;
57561;SDS011;43397;51.530;5.974;2022-08-19T04:30:27;46.75;;;31.95;;
57561;SDS011;43397;51.530;5.974;2022-08-19T04:32:54;43.83;;;30.98;;
57561;SDS011;43397;51.530;5.974;2022-08-19T04:35:21;45.72;;;29.85;;
57561;SDS011;43397;51.530;5.974;2022-08-19T04:37:46;41.78;;;29.27;;
57561;SDS011;43397;51.530;5.974;2022-08-19T04:40:12;46.03;;;30.95;;
57561;SDS011;43397;51.530;5.974;2022-08-19T04:42:38;45.28;;;29.42;;
57561;SDS011;43397;51.530;5.974;2022-08-19T04:45:04;42.55;;;29.90;;
57561;SDS011;43397;51.530;5.974;2022-08-19T04:47:32;31.42;;;20.50;;
57561;SDS011;43397;51.530;5.974;2022-08-19T04:49:59;27.02;;;19.58;;
57561;SDS011;43397;51.530;5.974;2022-08-19T04:52:25;33.38;;;22.10;;
57561;SDS011;43397;51.530;5.974;2022-08-19T04:54:51;29.98;;;19.23;;
57561;SDS011;43397;51.530;5.974;2022-08-19T04:57:16;29.95;;;21.38;;
57561;SDS011;43397;51.530;5.974;2022-08-19T04:59:42;32.45;;;21.15;;
57561;SDS011;43397;51.530;5.974;2022-08-19T05:02:08;34.15;;;23.08;;
57561;SDS011;43397;51.530;5.974;2022-08-19T05:04:35;30.70;;;21.92;;
57561;SDS011;43397;51.530;5.974;2022-08-19T05:07:03;30.45;;;21.83;;
57561;SDS011;43397;51.530;5.974;2022-08-19T05:09:29;28.17;;;21.13;;
57561;SDS011;43397;51.530;5.974;2022-08-19T05:11:55;31.75;;;21.95;;
57561;SDS011;43397;51.530;5.974;2022-08-19T05:14:20;27.95;;;21.25;;
57561;SDS011;43397;51.530;5.974;2022-08-19T05:16:46;33.70;;;21.50;;
57561;SDS011;43397;51.530;5.974;2022-08-19T05:19:12;29.10;;;20.42;;
57561;SDS011;43397;51.530;5.974;2022-08-19T05:21:39;28.60;;;21.35;;
57561;SDS011;43397;51.530;5.974;2022-08-19T05:24:07;29.63;;;21.50;;
57561;SDS011;43397;51.530;5.974;2022-08-19T05:26:33;29.73;;;20.83;;
57561;SDS011;43397;51.530;5.974;2022-08-19T05:28:58;31.92;;;21.65;;
57561;SDS011;43397;51.530;5.974;2022-08-19T05:31:24;32.20;;;23.60;;
57561;SDS011;43397;51.530;5.974;2022-08-19T05:33:50;31.98;;;23.35;;
57561;SDS011;43397;51.530;5.974;2022-08-19T05:36:16;30.40;;;20.58;;
57561;SDS011;43397;51.530;5.974;2022-08-19T05:38:42;32.17;;;22.55;;
57561;SDS011;43397;51.530;5.974;2022-08-19T05:41:09;31.73;;;22.85;;
57561;SDS011;43397;51.530;5.974;2022-08-19T05:43:36;31.50;;;21.47;;
57561;SDS011;43397;51.530;5.974;2022-08-19T05:46:02;33.05;;;23.23;;
57561;SDS011;43397;51.530;5.974;2022-08-19T05:48:28;30.83;;;23.45;;
57561;SDS011;43397;51.530;5.974;2022-08-19T05:50:54;32.05;;;23.50;;
57561;SDS011;43397;51.530;5.974;2022-08-19T05:53:20;35.97;;;25.58;;
57561;SDS011;43397;51.530;5.974;2022-08-19T05:55:46;36.63;;;24.98;;
57561;SDS011;43397;51.530;5.974;2022-08-19T05:58:13;34.38;;;24.35;;
57561;SDS011;43397;51.530;5.974;2022-08-19T06:00:39;32.80;;;22.98;;
57561;SDS011;43397;51.530;5.974;2022-08-19T06:03:04;36.33;;;24.77;;
57561;SDS011;43397;51.530;5.974;2022-08-19T06:05:30;44.25;;;29.83;;
57561;SDS011;43397;51.530;5.974;2022-08-19T06:08:04;40.53;;;29.05;;
57561;SDS011;43397;51.530;5.974;2022-08-19T06:10:32;35.85;;;24.98;;
57561;SDS011;43397;51.530;5.974;2022-08-19T06:13:01;33.53;;;24.13;;
57561;SDS011;43397;51.530;5.974;2022-08-19T06:15:39;38.58;;;27.80;;
57561;SDS011;43397;51.530;5.974;2022-08-19T06:18:05;41.88;;;29.50;;
57561;SDS011;43397;51.530;5.974;2022-08-19T06:20:34;37.58;;;26.67;;
57561;SDS011;43397;51.530;5.974;2022-08-19T06:23:04;44.72;;;30.75;;
57561;SDS011;43397;51.530;5.974;2022-08-19T06:25:31;47.38;;;31.38;;
57561;SDS011;43397;51.530;5.974;2022-08-19T06:27:57;42.35;;;29.45;;
57561;SDS011;43397;51.530;5.974;2022-08-19T06:30:28;42.90;;;29.30;;
57561;SDS011;43397;51.530;5.974;2022-08-19T06:32:56;43.33;;;29.45;;
57561;SDS011;43397;51.530;5.974;2022-08-19T06:35:22;49.10;;;34.13;;
57561;SDS011;43397;51.530;5.974;2022-08-19T06:37:48;43.88;;;31.13;;
57561;SDS011;43397;51.530;5.974;2022-08-19T06:40:13;46.63;;;30.42;;
57561;SDS011;43397;51.530;5.974;2022-08-19T06:42:39;52.60;;;33.88;;
57561;SDS011;43397;51.530;5.974;2022-08-19T06:45:05;51.80;;;33.08;;
57561;SDS011;43397;51.530;5.974;2022-08-19T06:47:32;56.63;;;35.88;;
57561;SDS011;43397;51.530;5.974;2022-08-19T06:50:00;48.75;;;31.70;;
57561;SDS011;43397;51.530;5.974;2022-08-19T06:52:26;51.55;;;36.70;;
57561;SDS011;43397;51.530;5.974;2022-08-19T06:54:52;48.75;;;31.80;;
57561;SDS011;43397;51.530;5.974;2022-08-19T06:57:17;53.85;;;36.40;;
57561;SDS011;43397;51.530;5.974;2022-08-19T06:59:43;55.25;;;37.53;;
57561;SDS011;43397;51.530;5.974;2022-08-19T07:02:09;52.17;;;34.72;;
57561;SDS011;43397;51.530;5.974;2022-08-19T07:04:35;52.50;;;33.15;;
57561;SDS011;43397;51.530;5.974;2022-08-19T07:07:05;47.35;;;32.13;;
57561;SDS011;43397;51.530;5.974;2022-08-19T07:09:32;54.35;;;34.75;;
57561;SDS011;43397;51.530;5.974;2022-08-19T07:11:58;51.05;;;35.55;;
57561;SDS011;43397;51.530;5.974;2022-08-19T07:14:25;54.33;;;36.33;;
57561;SDS011;43397;51.530;5.974;2022-08-19T07:16:53;50.75;;;31.00;;
57561;SDS011;43397;51.530;5.974;2022-08-19T07:19:21;48.93;;;32.67;;
57561;SDS011;43397;51.530;5.974;2022-08-19T07:21:49;49.25;;;35.53;;
57561;SDS011;43397;51.530;5.974;2022-08-19T07:24:18;46.70;;;31.35;;
57561;SDS011;43397;51.530;5.974;2022-08-19T07:26:45;53.23;;;33.83;;
57561;SDS011;43397;51.530;5.974;2022-08-19T07:29:11;51.80;;;35.20;;
57561;SDS011;43397;51.530;5.974;2022-08-19T07:31:38;45.85;;;31.05;;
57561;SDS011;43397;51.530;5.974;2022-08-19T07:34:05;47.85;;;31.58;;
57561;SDS011;43397;51.530;5.974;2022-08-19T07:36:33;45.10;;;31.00;;
57561;SDS011;43397;51.530;5.974;2022-08-19T07:39:02;48.00;;;30.48;;
57561;SDS011;43397;51.530;5.974;2022-08-19T07:41:33;44.85;;;30.42;;
57561;SDS011;43397;51.530;5.974;2022-08-19T07:44:00;46.50;;;32.13;;
57561;SDS011;43397;51.530;5.974;2022-08-19T07:46:26;45.85;;;29.95;;
57561;SDS011;43397;51.530;5.974;2022-08-19T07:48:52;53.63;;;35.83;;
57561;SDS011;43397;51.530;5.974;2022-08-19T07:51:19;43.85;;;30.52;;
57561;SDS011;43397;51.530;5.974;2022-08-19T07:53:47;42.85;;;30.40;;
57561;SDS011;43397;51.530;5.974;2022-08-19T07:56:14;45.00;;;31.40;;
57561;SDS011;43397;51.530;5.974;2022-08-19T07:58:42;45.03;;;30.48;;
57561;SDS011;43397;51.530;5.974;2022-08-19T08:03:37;43.90;;;29.45;;
57561;SDS011;43397;51.530;5.974;2022-08-19T08:06:03;42.00;;;29.77;;
57561;SDS011;43397;51.530;5.974;2022-08-19T08:08:30;44.13;;;28.83;;
57561;SDS011;43397;51.530;5.974;2022-08-19T08:10:56;39.60;;;27.60;;
57561;SDS011;43397;51.530;5.974;2022-08-19T08:13:22;39.47;;;26.65;;
57561;SDS011;43397;51.530;5.974;2022-08-19T08:15:50;40.33;;;27.95;;
57561;SDS011;43397;51.530;5.974;2022-08-19T08:18:15;36.50;;;25.83;;
57561;SDS011;43397;51.530;5.974;2022-08-19T08:20:41;36.10;;;25.95;;
57561;SDS011;43397;51.530;5.974;2022-08-19T08:23:07;38.90;;;26.85;;
57561;SDS011;43397;51.530;5.974;2022-08-19T08:25:33;32.08;;;22.73;;
57561;SDS011;43397;51.530;5.974;2022-08-19T08:28:00;35.63;;;25.27;;
57561;SDS011;43397;51.530;5.974;2022-08-19T08:30:28;31.13;;;21.92;;
57561;SDS011;43397;51.530;5.974;2022-08-19T08:32:57;34.50;;;24.30;;
57561;SDS011;43397;51.530;5.974;2022-08-19T08:35:22;31.52;;;20.73;;
57561;SDS011;43397;51.530;5.974;2022-08-19T08:37:49;30.58;;;19.17;;
57561;SDS011;43397;51.530;5.974;2022-08-19T08:40:19;31.80;;;22.17;;
57561;SDS011;43397;51.530;5.974;2022-08-19T08:42:50;32.13;;;22.42;;
57561;SDS011;43397;51.530;5.974;2022-08-19T08:45:20;31.58;;;23.00;;
57561;SDS011;43397;51.530;5.974;2022-08-19T08:47:49;28.27;;;19.67;;
57561;SDS011;43397;51.530;5.974;2022-08-19T08:50:22;35.05;;;22.15;;
57561;SDS011;43397;51.530;5.974;2022-08-19T08:52:55;27.83;;;19.27;;
57561;SDS011;43397;51.530;5.974;2022-08-19T08:55:24;29.30;;;21.23;;
57561;SDS011;43397;51.530;5.974;2022-08-19T08:57:53;27.80;;;19.25;;
57561;SDS011;43397;51.530;5.974;2022-08-19T09:00:25;30.02;;;20.17;;
57561;SDS011;43397;51.530;5.974;2022-08-19T09:02:55;28.08;;;18.80;;
57561;SDS011;43397;51.530;5.974;2022-08-19T09:05:24;25.02;;;16.75;;
57561;SDS011;43397;51.530;5.974;2022-08-19T09:07:57;21.77;;;16.15;;
57561;SDS011;43397;51.530;5.974;2022-08-19T09:10:28;25.13;;;16.83;;
57561;SDS011;43397;51.530;5.974;2022-08-19T09:12:59;27.08;;;17.40;;
57561;SDS011;43397;51.530;5.974;2022-08-19T09:15:34;24.13;;;16.83;;
57561;SDS011;43397;51.530;5.974;2022-08-19T09:18:05;23.50;;;15.27;;
57561;SDS011;43397;51.530;5.974;2022-08-19T09:20:32;21.42;;;15.73;;
57561;SDS011;43397;51.530;5.974;2022-08-19T09:22:58;33.75;;;14.35;;
57561;SDS011;43397;51.530;5.974;2022-08-19T09:25:24;23.38;;;15.20;;
57561;SDS011;43397;51.530;5.974;2022-08-19T09:27:51;20.75;;;14.40;;
57561;SDS011;43397;51.530;5.974;2022-08-19T09:30:20;21.17;;;14.00;;
57561;SDS011;43397;51.530;5.974;2022-08-19T09:32:48;17.25;;;12.38;;
57561;SDS011;43397;51.530;5.974;2022-08-19T09:35:14;21.85;;;14.40;;
57561;SDS011;43397;51.530;5.974;2022-08-19T09:37:41;22.25;;;13.45;;
57561;SDS011;43397;51.530;5.974;2022-08-19T09:40:08;19.53;;;13.00;;
57561;SDS011;43397;51.530;5.974;2022-08-19T09:42:38;19.92;;;13.18;;
57561;SDS011;43397;51.530;5.974;2022-08-19T09:45:22;20.08;;;14.02;;
57561;SDS011;43397;51.530;5.974;2022-08-19T09:47:49;18.80;;;11.80;;
57561;SDS011;43397;51.530;5.974;2022-08-19T09:50:16;15.02;;;11.77;;
57561;SDS011;43397;51.530;5.974;2022-08-19T09:52:44;18.52;;;12.88;;
57561;SDS011;43397;51.530;5.974;2022-08-19T09:55:13;18.10;;;11.45;;
57561;SDS011;43397;51.530;5.974;2022-08-19T09:57:43;13.93;;;9.63;;
57561;SDS011;43397;51.530;5.974;2022-08-19T10:00:12;13.57;;;10.30;;
57561;SDS011;43397;51.530;5.974;2022-08-19T10:02:39;14.55;;;9.65;;
57561;SDS011;43397;51.530;5.974;2022-08-19T10:05:05;13.48;;;10.50;;
57561;SDS011;43397;51.530;5.974;2022-08-19T10:07:31;12.48;;;9.30;;
57561;SDS011;43397;51.530;5.974;2022-08-19T10:09:58;15.95;;;11.52;;
57561;SDS011;43397;51.530;5.974;2022-08-19T10:12:24;14.32;;;11.10;;
57561;SDS011;43397;51.530;5.974;2022-08-19T10:14:50;15.82;;;11.38;;
57561;SDS011;43397;51.530;5.974;2022-08-19T10:17:16;14.85;;;10.73;;
57561;SDS011;43397;51.530;5.974;2022-08-19T10:19:42;12.50;;;10.63;;
57561;SDS011;43397;51.530;5.974;2022-08-19T10:22:08;13.48;;;10.60;;
57561;SDS011;43397;51.530;5.974;2022-08-19T10:24:34;15.35;;;12.05;;
57561;SDS011;43397;51.530;5.974;2022-08-19T10:27:01;12.98;;;11.52;;
57561;SDS011;43397;51.530;5.974;2022-08-19T10:29:28;16.10;;;13.35;;
57561;SDS011;43397;51.530;5.974;2022-08-19T10:31:54;16.65;;;12.57;;
57561;SDS011;43397;51.530;5.974;2022-08-19T10:34:20;18.38;;;15.10;;
57561;SDS011;43397;51.530;5.974;2022-08-19T10:36:45;17.20;;;13.90;;
57561;SDS011;43397;51.530;5.974;2022-08-19T10:39:11;17.23;;;13.90;;
57561;SDS011;43397;51.530;5.974;2022-08-19T10:41:37;13.27;;;10.77;;
57561;SDS011;43397;51.530;5.974;2022-08-19T10:44:06;18.73;;;14.25;;
57561;SDS011;43397;51.530;5.974;2022-08-19T10:46:36;16.58;;;14.18;;
57561;SDS011;43397;51.530;5.974;2022-08-19T10:49:04;16.08;;;14.38;;
57561;SDS011;43397;51.530;5.974;2022-08-19T10:51:30;17.17;;;15.38;;
57561;SDS011;43397;51.530;5.974;2022-08-19T10:53:57;16.73;;;14.27;;
57561;SDS011;43397;51.530;5.974;2022-08-19T10:56:25;20.13;;;17.73;;
57561;SDS011;43397;51.530;5.974;2022-08-19T10:58:51;19.10;;;17.10;;
57561;SDS011;43397;51.530;5.974;2022-08-19T11:01:19;20.55;;;17.40;;
57561;SDS011;43397;51.530;5.974;2022-08-19T11:03:45;19.30;;;17.38;;
57561;SDS011;43397;51.530;5.974;2022-08-19T11:06:10;18.42;;;16.15;;
57561;SDS011;43397;51.530;5.974;2022-08-19T11:08:36;18.33;;;16.35;;
57561;SDS011;43397;51.530;5.974;2022-08-19T11:11:03;20.58;;;17.60;;
57561;SDS011;43397;51.530;5.974;2022-08-19T11:13:31;21.17;;;17.80;;
57561;SDS011;43397;51.530;5.974;2022-08-19T11:16:00;21.13;;;17.98;;
57561;SDS011;43397;51.530;5.974;2022-08-19T11:18:29;20.88;;;18.52;;
57561;SDS011;43397;51.530;5.974;2022-08-19T11:20:54;23.67;;;17.00;;
57561;SDS011;43397;51.530;5.974;2022-08-19T11:23:29;18.33;;;16.00;;
57561;SDS011;43397;51.530;5.974;2022-08-19T11:25:56;15.68;;;14.02;;
57561;SDS011;43397;51.530;5.974;2022-08-19T11:28:22;19.60;;;15.25;;
57561;SDS011;43397;51.530;5.974;2022-08-19T11:30:47;18.73;;;15.88;;
57561;SDS011;43397;51.530;5.974;2022-08-19T11:33:13;18.08;;;14.60;;
57561;SDS011;43397;51.530;5.974;2022-08-19T11:35:40;21.73;;;16.35;;
57561;SDS011;43397;51.530;5.974;2022-08-19T11:38:06;19.60;;;14.93;;
57561;SDS011;43397;51.530;5.974;2022-08-19T11:40:32;18.33;;;14.35;;
57561;SDS011;43397;51.530;5.974;2022-08-19T11:42:58;16.83;;;13.38;;
57561;SDS011;43397;51.530;5.974;2022-08-19T11:45:24;18.70;;;13.60;;
57561;SDS011;43397;51.530;5.974;2022-08-19T11:47:51;17.50;;;12.65;;
57561;SDS011;43397;51.530;5.974;2022-08-19T11:50:17;16.58;;;12.65;;
57561;SDS011;43397;51.530;5.974;2022-08-19T11:52:45;17.30;;;13.18;;
57561;SDS011;43397;51.530;5.974;2022-08-19T11:55:11;18.60;;;14.65;;
57561;SDS011;43397;51.530;5.974;2022-08-19T11:57:38;21.85;;;15.70;;
57561;SDS011;43397;51.530;5.974;2022-08-19T12:00:04;26.23;;;18.35;;
57561;SDS011;43397;51.530;5.974;2022-08-19T12:02:31;23.48;;;16.00;;
57561;SDS011;43397;51.530;5.974;2022-08-19T12:04:56;23.77;;;16.25;;
57561;SDS011;43397;51.530;5.974;2022-08-19T12:07:23;18.55;;;15.32;;
57561;SDS011;43397;51.530;5.974;2022-08-19T12:09:51;21.17;;;15.60;;
57561;SDS011;43397;51.530;5.974;2022-08-19T12:12:16;21.30;;;16.00;;
57561;SDS011;43397;51.530;5.974;2022-08-19T12:14:42;20.60;;;13.75;;
57561;SDS011;43397;51.530;5.974;2022-08-19T12:17:08;20.73;;;16.17;;
57561;SDS011;43397;51.530;5.974;2022-08-19T12:19:35;20.52;;;14.25;;
57561;SDS011;43397;51.530;5.974;2022-08-19T12:22:01;19.75;;;13.60;;
57561;SDS011;43397;51.530;5.974;2022-08-19T12:24:28;20.60;;;15.82;;
57561;SDS011;43397;51.530;5.974;2022-08-19T12:26:57;22.98;;;13.93;;
57561;SDS011;43397;51.530;5.974;2022-08-19T12:29:23;18.60;;;14.80;;
57561;SDS011;43397;51.530;5.974;2022-08-19T12:31:49;21.02;;;14.23;;
57561;SDS011;43397;51.530;5.974;2022-08-19T12:34:15;18.08;;;12.95;;
57561;SDS011;43397;51.530;5.974;2022-08-19T12:36:41;22.08;;;15.45;;
57561;SDS011;43397;51.530;5.974;2022-08-19T12:39:06;18.17;;;13.00;;
57561;SDS011;43397;51.530;5.974;2022-08-19T12:41:32;17.23;;;12.85;;
57561;SDS011;43397;51.530;5.974;2022-08-19T12:43:59;16.50;;;12.88;;
57561;SDS011;43397;51.530;5.974;2022-08-19T12:46:25;17.58;;;14.30;;
57561;SDS011;43397;51.530;5.974;2022-08-19T12:48:51;19.67;;;15.15;;
57561;SDS011;43397;51.530;5.974;2022-08-19T12:51:17;19.15;;;13.05;;
57561;SDS011;43397;51.530;5.974;2022-08-19T12:53:43;18.02;;;12.57;;
57561;SDS011;43397;51.530;5.974;2022-08-19T12:56:10;17.88;;;13.25;;
57561;SDS011;43397;51.530;5.974;2022-08-19T12:58:37;18.40;;;13.85;;
57561;SDS011;43397;51.530;5.974;2022-08-19T13:01:08;19.60;;;14.00;;
57561;SDS011;43397;51.530;5.974;2022-08-19T13:03:35;16.35;;;11.73;;
57561;SDS011;43397;51.530;5.974;2022-08-19T13:06:01;15.20;;;11.98;;
57561;SDS011;43397;51.530;5.974;2022-08-19T13:08:26;20.00;;;13.65;;
57561;SDS011;43397;51.530;5.974;2022-08-19T13:10:53;18.80;;;13.63;;
57561;SDS011;43397;51.530;5.974;2022-08-19T13:13:33;17.35;;;13.82;;
57561;SDS011;43397;51.530;5.974;2022-08-19T13:16:07;17.52;;;13.35;;
57561;SDS011;43397;51.530;5.974;2022-08-19T13:18:45;18.80;;;14.45;;
57561;SDS011;43397;51.530;5.974;2022-08-19T13:21:21;15.85;;;13.43;;
57561;SDS011;43397;51.530;5.974;2022-08-19T13:23:54;18.23;;;14.70;;
57561;SDS011;43397;51.530;5.974;2022-08-19T13:26:26;20.33;;;15.10;;
57561;SDS011;43397;51.530;5.974;2022-08-19T13:28:59;17.95;;;14.30;;
57561;SDS011;43397;51.530;5.974;2022-08-19T13:31:28;16.75;;;14.35;;
57561;SDS011;43397;51.530;5.974;2022-08-19T13:34:00;19.92;;;14.98;;
57561;SDS011;43397;51.530;5.974;2022-08-19T13:36:26;20.70;;;15.00;;
57561;SDS011;43397;51.530;5.974;2022-08-19T13:38:52;19.23;;;13.90;;
57561;SDS011;43397;51.530;5.974;2022-08-19T13:41:18;20.80;;;15.43;;
57561;SDS011;43397;51.530;5.974;2022-08-19T13:43:44;19.42;;;13.00;;
57561;SDS011;43397;51.530;5.974;2022-08-19T13:46:10;18.60;;;12.75;;
57561;SDS011;43397;51.530;5.974;2022-08-19T13:48:38;17.92;;;12.48;;
57561;SDS011;43397;51.530;5.974;2022-08-19T13:51:04;16.08;;;12.88;;
57561;SDS011;43397;51.530;5.974;2022-08-19T13:53:31;17.83;;;12.45;;
57561;SDS011;43397;51.530;5.974;2022-08-19T13:55:57;15.85;;;12.65;;
57561;SDS011;43397;51.530;5.974;2022-08-19T13:58:23;16.45;;;12.93;;
57561;SDS011;43397;51.530;5.974;2022-08-19T14:00:49;17.67;;;13.13;;
57561;SDS011;43397;51.530;5.974;2022-08-19T14:03:15;16.70;;;13.48;;
57561;SDS011;43397;51.530;5.974;2022-08-19T14:05:42;18.38;;;12.88;;
57561;SDS011;43397;51.530;5.974;2022-08-19T14:08:08;18.42;;;13.18;;
57561;SDS011;43397;51.530;5.974;2022-08-19T14:10:34;17.27;;;12.68;;
57561;SDS011;43397;51.530;5.974;2022-08-19T14:13:01;16.55;;;12.80;;
57561;SDS011;43397;51.530;5.974;2022-08-19T14:15:29;19.02;;;13.35;;
57561;SDS011;43397;51.530;5.974;2022-08-19T14:17:55;17.65;;;12.73;;
57561;SDS011;43397;51.530;5.974;2022-08-19T14:20:21;16.80;;;12.45;;
57561;SDS011;43397;51.530;5.974;2022-08-19T14:22:49;18.63;;;12.95;;
57561;SDS011;43397;51.530;5.974;2022-08-19T14:25:15;19.05;;;12.68;;
57561;SDS011;43397;51.530;5.974;2022-08-19T14:27:44;17.63;;;13.73;;